createdAt,value
2019-02-23T00:00:48.340Z,7.30
2019-02-23T00:03:21.531Z,6.75
2019-02-23T00:05:55.116Z,7.05
2019-02-23T00:08:28.906Z,7.47
2019-02-23T00:11:03.127Z,8.00
2019-02-23T00:13:36.380Z,8.10
2019-02-23T00:16:10.258Z,7.70
2019-02-23T00:18:44.146Z,7.20
2019-02-23T00:21:17.409Z,8.00
2019-02-23T00:23:51.248Z,8.23
2019-02-23T00:26:25.066Z,7.87
2019-02-23T00:28:59.487Z,8.38
2019-02-23T00:31:33.220Z,7.78
2019-02-23T00:34:07.228Z,6.70
2019-02-23T00:36:40.538Z,6.90
2019-02-23T00:39:14.802Z,7.08
2019-02-23T00:41:49.369Z,7.95
2019-02-23T00:44:23.927Z,8.08
2019-02-23T00:46:57.716Z,7.72
2019-02-23T00:49:36.429Z,6.72
2019-02-23T00:52:05.532Z,6.95
2019-02-23T00:54:39.364Z,6.40
2019-02-23T00:57:13.529Z,7.22
2019-02-23T00:59:48.335Z,6.53
2019-02-23T01:02:21.635Z,6.03
2019-02-23T01:04:54.892Z,6.08
2019-02-23T01:07:29.773Z,7.35
2019-02-23T01:10:03.440Z,6.17
2019-02-23T01:12:36.218Z,6.20
2019-02-23T01:15:10.582Z,6.60
2019-02-23T01:17:44.365Z,7.37
2019-02-23T01:20:18.137Z,8.50
2019-02-23T01:22:51.979Z,8.75
2019-02-23T01:25:25.825Z,8.78
2019-02-23T01:27:59.558Z,7.28
2019-02-23T01:30:33.801Z,7.20
2019-02-23T01:33:07.972Z,7.55
2019-02-23T01:35:42.516Z,8.90
2019-02-23T01:38:16.169Z,8.05
2019-02-23T01:40:49.456Z,7.60
2019-02-23T01:43:23.785Z,8.30
2019-02-23T01:45:57.346Z,7.22
2019-02-23T01:48:31.103Z,7.05
2019-02-23T01:51:04.992Z,6.67
2019-02-23T01:53:38.225Z,6.47
2019-02-23T01:56:12.433Z,6.67
2019-02-23T01:58:46.738Z,6.12
2019-02-23T02:01:20.112Z,6.28
2019-02-23T02:03:54.024Z,5.85
2019-02-23T02:06:27.347Z,6.50
2019-02-23T02:09:00.135Z,6.97
2019-02-23T02:11:34.972Z,6.40
2019-02-23T02:14:09.431Z,6.85
2019-02-23T02:16:43.246Z,6.10
2019-02-23T02:19:16.476Z,6.67
2019-02-23T02:21:51.176Z,6.53
2019-02-23T02:24:24.589Z,6.90
2019-02-23T02:26:59.001Z,6.15
2019-02-23T02:29:32.705Z,6.55
2019-02-23T02:32:06.635Z,7.62
2019-02-23T02:34:41.523Z,6.87
2019-02-23T02:37:15.253Z,7.40
2019-02-23T02:39:49.462Z,6.97
2019-02-23T02:42:22.760Z,7.65
2019-02-23T02:44:55.687Z,13.25
2019-02-23T02:47:29.867Z,29.50
2019-02-23T02:50:04.106Z,34.03
2019-02-23T02:52:37.270Z,17.35
2019-02-23T02:55:11.461Z,8.55
2019-02-23T02:57:45.622Z,8.15
2019-02-23T03:00:20.505Z,6.87
2019-02-23T03:02:54.360Z,6.47
2019-02-23T03:05:28.208Z,7.20
2019-02-23T03:08:01.573Z,6.67
2019-02-23T03:10:35.393Z,7.20
2019-02-23T03:13:08.272Z,7.10
2019-02-23T03:15:42.068Z,7.67
2019-02-23T03:18:15.947Z,6.67
2019-02-23T03:20:49.782Z,6.28
2019-02-23T03:23:23.974Z,6.85
2019-02-23T03:25:57.777Z,7.25
2019-02-23T03:28:31.510Z,6.62
2019-02-23T03:31:05.516Z,6.67
2019-02-23T03:33:38.755Z,7.15
2019-02-23T03:36:12.536Z,6.42
2019-02-23T03:38:45.935Z,6.67
2019-02-23T03:41:19.759Z,6.42
2019-02-23T03:43:53.559Z,6.95
2019-02-23T03:46:27.032Z,6.50
2019-02-23T03:49:01.077Z,6.62
2019-02-23T03:51:34.388Z,6.05
2019-02-23T03:54:08.239Z,6.45
2019-02-23T03:56:42.024Z,7.42
2019-02-23T03:59:15.662Z,6.17
2019-02-23T04:01:49.428Z,6.87
2019-02-23T04:04:23.682Z,6.45
2019-02-23T04:06:58.201Z,6.53
2019-02-23T04:09:31.445Z,6.55
2019-02-23T04:12:05.173Z,6.85
2019-02-23T04:14:38.460Z,6.70
2019-02-23T04:17:11.564Z,7.25
2019-02-23T04:19:44.931Z,7.28
2019-02-23T04:22:19.138Z,6.62
2019-02-23T04:24:53.892Z,7.28
2019-02-23T04:27:28.137Z,7.05
2019-02-23T04:30:02.317Z,7.17
2019-02-23T04:32:35.574Z,8.70
2019-02-23T04:35:08.148Z,8.48
2019-02-23T04:37:41.546Z,9.98
2019-02-23T04:40:16.172Z,9.83
2019-02-23T04:42:48.956Z,9.75
2019-02-23T04:45:23.196Z,9.13
2019-02-23T04:47:56.052Z,9.60
2019-02-23T04:50:29.428Z,9.55
2019-02-23T04:53:03.796Z,8.90
2019-02-23T04:55:37.793Z,10.18
2019-02-23T04:58:12.247Z,10.68
2019-02-23T05:00:45.543Z,9.68
2019-02-23T05:03:20.178Z,10.65
2019-02-23T05:05:53.938Z,10.82
2019-02-23T05:08:28.167Z,9.95
2019-02-23T05:11:01.479Z,10.63
2019-02-23T05:13:35.720Z,10.65
2019-02-23T05:16:08.959Z,10.85
2019-02-23T05:18:42.199Z,10.70
2019-02-23T05:21:25.954Z,10.48
2019-02-23T05:23:50.830Z,10.72
2019-02-23T05:26:24.085Z,10.08
2019-02-23T05:28:57.024Z,10.53
2019-02-23T05:31:31.319Z,10.85
2019-02-23T05:34:04.720Z,12.35
2019-02-23T05:36:37.601Z,10.28
2019-02-23T05:39:11.950Z,10.78
2019-02-23T05:41:45.258Z,10.78
2019-02-23T05:44:18.583Z,11.25
2019-02-23T05:46:52.438Z,11.48
2019-02-23T05:49:25.707Z,10.45
2019-02-23T05:51:59.377Z,11.05
2019-02-23T05:54:33.800Z,9.08
2019-02-23T05:57:07.544Z,9.40
2019-02-23T05:59:40.895Z,11.63
2019-02-23T06:02:15.463Z,11.08
2019-02-23T06:04:49.673Z,12.15
2019-02-23T06:07:23.103Z,14.07
2019-02-23T06:09:56.440Z,13.32
2019-02-23T06:12:30.676Z,12.55
2019-02-23T06:15:03.942Z,12.60
2019-02-23T06:17:37.867Z,11.08
2019-02-23T06:20:13.103Z,12.23
2019-02-23T06:22:47.039Z,12.20
2019-02-23T06:25:21.009Z,11.85
2019-02-23T06:27:54.742Z,13.05
2019-02-23T06:30:28.951Z,12.15
2019-02-23T06:33:04.177Z,12.78
2019-02-23T06:35:37.533Z,12.03
2019-02-23T06:38:10.554Z,11.85
2019-02-23T06:40:44.318Z,10.68
2019-02-23T06:43:17.841Z,12.43
2019-02-23T06:45:50.927Z,11.90
2019-02-23T06:48:24.849Z,11.65
2019-02-23T06:51:00.408Z,11.68
2019-02-23T06:53:32.879Z,12.58
2019-02-23T06:56:12.458Z,10.98
2019-02-23T06:58:46.403Z,11.57
2019-02-23T07:01:20.432Z,11.18
2019-02-23T07:03:53.885Z,12.28
2019-02-23T07:06:27.165Z,11.73
2019-02-23T07:08:59.661Z,11.43
2019-02-23T07:11:32.839Z,12.45
2019-02-23T07:14:06.274Z,11.45
2019-02-23T07:16:40.193Z,11.57
2019-02-23T07:19:15.716Z,10.40
2019-02-23T07:21:49.300Z,9.90
2019-02-23T07:24:24.401Z,10.93
2019-02-23T07:26:59.624Z,10.48
2019-02-23T07:29:34.290Z,9.88
2019-02-23T07:32:08.774Z,15.88
2019-02-23T07:34:41.845Z,19.42
2019-02-23T07:37:15.988Z,11.10
2019-02-23T07:39:50.535Z,11.55
2019-02-23T07:42:23.417Z,11.12
2019-02-23T07:44:55.810Z,11.63
2019-02-23T07:47:28.983Z,12.25
2019-02-23T07:50:03.894Z,10.23
2019-02-23T07:52:37.898Z,9.23
2019-02-23T07:55:12.192Z,12.07
2019-02-23T07:57:46.634Z,9.85
2019-02-23T08:00:21.220Z,9.50
2019-02-23T08:02:54.891Z,9.73
2019-02-23T08:05:29.436Z,9.08
2019-02-23T08:08:03.856Z,10.03
2019-02-23T08:10:39.740Z,10.08
2019-02-23T08:13:14.635Z,10.18
2019-02-23T08:15:48.603Z,10.20
2019-02-23T08:18:22.632Z,9.88
2019-02-23T08:20:56.090Z,9.88
2019-02-23T08:23:30.885Z,9.93
2019-02-23T08:26:05.201Z,9.08
2019-02-23T08:28:38.934Z,10.40
2019-02-23T08:31:13.470Z,9.68
2019-02-23T08:33:48.235Z,10.05
2019-02-23T08:36:23.752Z,9.38
2019-02-23T08:38:57.728Z,9.48
2019-02-23T08:41:32.912Z,10.53
2019-02-23T08:44:06.213Z,9.98
2019-02-23T08:46:40.612Z,10.45
2019-02-23T08:49:15.020Z,11.53
2019-02-23T08:51:50.834Z,10.58
2019-02-23T08:54:25.188Z,7.50
2019-02-23T08:57:00.107Z,8.35
2019-02-23T08:59:34.484Z,9.38
2019-02-23T09:02:08.216Z,9.33
2019-02-23T09:04:44.264Z,8.18
2019-02-23T09:07:19.295Z,7.75
2019-02-23T09:09:53.316Z,8.30
2019-02-23T09:12:27.582Z,8.45
2019-02-23T09:15:01.589Z,6.90
2019-02-23T09:17:36.443Z,6.72
2019-02-23T09:20:11.196Z,5.97
2019-02-23T09:22:46.292Z,7.03
2019-02-23T09:25:20.741Z,7.15
2019-02-23T09:27:55.781Z,6.30
2019-02-23T09:30:32.744Z,5.55
2019-02-23T09:33:06.646Z,5.17
2019-02-23T09:35:43.463Z,5.67
2019-02-23T09:38:19.651Z,5.08
2019-02-23T09:40:54.676Z,5.42
2019-02-23T09:43:28.389Z,5.00
2019-02-23T09:46:01.380Z,5.90
2019-02-23T09:48:37.137Z,5.62
2019-02-23T09:51:12.458Z,6.25
2019-02-23T09:53:48.059Z,6.87
2019-02-23T09:56:22.330Z,4.90
2019-02-23T09:58:56.504Z,7.25
2019-02-23T10:01:29.865Z,6.90
2019-02-23T10:04:03.121Z,6.55
2019-02-23T10:06:37.036Z,6.75
2019-02-23T10:09:11.431Z,6.42
2019-02-23T10:11:47.397Z,5.42
2019-02-23T10:14:21.530Z,6.20
2019-02-23T10:16:56.044Z,5.42
2019-02-23T10:19:30.624Z,5.87
2019-02-23T10:22:06.252Z,6.87
2019-02-23T10:24:40.985Z,6.10
2019-02-23T10:27:15.819Z,6.60
2019-02-23T10:29:50.393Z,6.17
2019-02-23T10:32:25.804Z,6.17
2019-02-23T10:35:00.148Z,6.22
2019-02-23T10:37:35.628Z,6.05
2019-02-23T10:40:10.188Z,7.47
2019-02-23T10:42:44.485Z,6.95
2019-02-23T10:45:17.789Z,6.40
2019-02-23T10:47:51.159Z,6.45
2019-02-23T10:50:25.181Z,6.45
2019-02-23T10:52:58.530Z,6.90
2019-02-23T10:55:33.740Z,5.58
2019-02-23T10:58:08.590Z,7.03
2019-02-23T11:00:42.219Z,6.83
2019-02-23T11:03:16.183Z,6.95
2019-02-23T11:05:51.044Z,6.33
2019-02-23T11:08:24.307Z,5.03
2019-02-23T11:10:58.339Z,5.25
2019-02-23T11:13:33.255Z,5.83
2019-02-23T11:16:08.815Z,6.83
2019-02-23T11:18:43.074Z,6.10
2019-02-23T11:21:18.243Z,5.70
2019-02-23T11:23:53.495Z,5.45
2019-02-23T11:26:27.984Z,6.03
2019-02-23T11:29:02.256Z,5.92
2019-02-23T11:31:38.164Z,6.12
2019-02-23T11:34:12.625Z,5.60
2019-02-23T11:36:48.008Z,6.62
2019-02-23T11:39:22.793Z,6.00
2019-02-23T11:41:57.671Z,6.25
2019-02-23T11:44:33.895Z,5.70
2019-02-23T11:47:09.032Z,6.35
2019-02-23T11:49:43.226Z,5.83
2019-02-23T11:52:18.103Z,6.67
2019-02-23T11:54:52.616Z,6.55
2019-02-23T11:57:27.743Z,6.92
2019-02-23T12:00:03.434Z,8.50
2019-02-23T12:02:38.590Z,7.65
2019-02-23T12:05:13.989Z,6.97
2019-02-23T12:07:48.986Z,7.42
2019-02-23T12:10:24.499Z,7.15
2019-02-23T12:12:58.271Z,7.78
2019-02-23T12:15:32.452Z,7.97
2019-02-23T12:18:06.189Z,9.40
2019-02-23T12:20:41.545Z,7.45
2019-02-23T12:23:16.469Z,7.60
2019-02-23T12:25:51.484Z,7.20
2019-02-23T12:28:26.642Z,7.53
2019-02-23T12:31:01.572Z,7.87
2019-02-23T12:33:37.186Z,7.58
2019-02-23T12:36:12.131Z,7.62
2019-02-23T12:38:46.436Z,7.58
2019-02-23T12:41:21.409Z,7.47
2019-02-23T12:43:56.400Z,7.30
2019-02-23T12:46:31.698Z,7.85
2019-02-23T12:49:07.145Z,7.28
2019-02-23T12:51:41.745Z,7.70
2019-02-23T12:54:17.233Z,7.20
2019-02-23T12:56:52.941Z,7.60
2019-02-23T12:59:29.725Z,7.53
2019-02-23T13:02:06.094Z,7.35
2019-02-23T13:04:41.109Z,7.17
2019-02-23T13:07:14.977Z,7.20
2019-02-23T13:10:04.682Z,7.40
2019-02-23T13:13:20.282Z,7.35
2019-02-23T13:16:32.062Z,5.83
2019-02-23T13:20:06.197Z,7.65
2019-02-23T13:23:55.475Z,7.42
2019-02-23T13:27:31.468Z,7.40
2019-02-23T13:31:19.118Z,7.22
2019-02-23T13:34:33.541Z,6.83
2019-02-23T13:38:05.397Z,7.33
2019-02-23T13:41:23.971Z,7.22
2019-02-23T13:45:04.262Z,6.78
2019-02-23T13:48:24.632Z,7.08
2019-02-23T13:52:08.613Z,6.97
2019-02-23T13:55:44.052Z,7.35
2019-02-23T13:58:49.435Z,7.40
2019-02-23T14:02:26.960Z,7.28
2019-02-23T14:06:01.526Z,6.75
2019-02-23T14:10:11.587Z,7.17
2019-02-23T14:13:18.283Z,7.65
2019-02-23T14:17:04.396Z,7.15
2019-02-23T14:20:53.442Z,7.85
2019-02-23T14:24:19.598Z,7.45
2019-02-23T14:28:00.814Z,7.08
2019-02-23T14:31:59.802Z,7.70
2019-02-23T14:35:27.101Z,8.85
2019-02-23T14:38:56.743Z,7.42
2019-02-23T14:42:17.079Z,7.70
2019-02-23T14:45:54.849Z,8.30
2019-02-23T14:49:36.071Z,8.08
2019-02-23T14:52:55.035Z,8.38
2019-02-23T14:56:16.693Z,8.53
2019-02-23T14:59:38.540Z,8.88
2019-02-23T15:03:10.734Z,9.18
2019-02-23T15:06:27.611Z,9.60
2019-02-23T15:09:45.573Z,9.15
2019-02-23T15:13:20.854Z,8.78
2019-02-23T15:16:59.479Z,9.45
2019-02-23T15:20:14.907Z,8.58
2019-02-23T15:23:55.465Z,7.92
2019-02-23T15:27:07.438Z,8.38
2019-02-23T15:30:25.504Z,9.00
2019-02-23T15:33:43.806Z,9.48
2019-02-23T15:37:03.474Z,10.80
2019-02-23T15:40:43.217Z,15.25
2019-02-23T15:44:08.726Z,10.45
2019-02-23T15:48:01.623Z,11.38
2019-02-23T15:50:40.524Z,17.55
2019-02-23T15:53:15.007Z,11.20
2019-02-23T15:55:49.435Z,12.25
2019-02-23T15:58:24.093Z,11.97
2019-02-23T16:00:58.706Z,9.83
2019-02-23T16:03:32.274Z,10.20
2019-02-23T16:06:07.149Z,11.68
2019-02-23T16:08:40.852Z,12.93
2019-02-23T16:11:14.503Z,12.80
2019-02-23T16:13:48.660Z,13.05
2019-02-23T16:16:22.826Z,12.13
2019-02-23T16:18:56.629Z,12.10
2019-02-23T16:21:29.820Z,13.13
2019-02-23T16:24:03.151Z,13.40
2019-02-23T16:26:36.474Z,13.15
2019-02-23T16:29:09.708Z,13.10
2019-02-23T16:31:42.814Z,12.73
2019-02-23T16:34:16.447Z,10.60
2019-02-23T16:36:50.459Z,12.23
2019-02-23T16:39:23.505Z,13.32
2019-02-23T16:41:56.856Z,12.70
2019-02-23T16:44:30.483Z,12.80
2019-02-23T16:47:04.208Z,12.03
2019-02-23T16:49:37.613Z,13.15
2019-02-23T16:52:12.386Z,14.58
2019-02-23T16:54:48.336Z,14.63
2019-02-23T16:57:24.531Z,16.42
2019-02-23T17:00:00.049Z,14.78
2019-02-23T17:02:36.179Z,18.80
2019-02-23T17:05:10.456Z,20.12
2019-02-23T17:07:45.433Z,21.37
2019-02-23T17:10:21.551Z,19.52
2019-02-23T17:12:55.793Z,20.20
2019-02-23T17:15:30.844Z,19.07
2019-02-23T17:18:05.811Z,20.20
2019-02-23T17:20:40.865Z,17.67
2019-02-23T17:23:16.128Z,19.27
2019-02-23T17:26:03.391Z,17.05
2019-02-23T17:28:27.965Z,19.70
2019-02-23T17:31:02.827Z,20.48
2019-02-23T17:33:37.991Z,20.25
2019-02-23T17:36:12.472Z,19.10
2019-02-23T17:38:46.911Z,19.23
2019-02-23T17:41:21.192Z,19.23
2019-02-23T17:43:56.190Z,21.00
2019-02-23T17:46:31.920Z,26.68
2019-02-23T17:49:07.082Z,38.38
2019-02-23T17:51:41.730Z,36.00
2019-02-23T17:54:15.150Z,42.58
2019-02-23T17:56:50.168Z,48.35
2019-02-23T17:59:25.374Z,44.85
2019-02-23T18:02:00.359Z,33.85
2019-02-23T18:04:34.246Z,24.35
2019-02-23T18:07:08.668Z,23.62
2019-02-23T18:09:43.774Z,23.30
2019-02-23T18:12:20.159Z,33.45
2019-02-23T18:14:55.952Z,49.18
2019-02-23T18:17:31.130Z,49.08
2019-02-23T18:20:05.490Z,41.42
2019-02-23T18:22:40.614Z,43.25
2019-02-23T18:25:16.238Z,36.40
2019-02-23T18:27:51.788Z,34.20
2019-02-23T18:30:26.919Z,26.20
2019-02-23T18:33:01.937Z,27.50
2019-02-23T18:35:37.755Z,25.40
2019-02-23T18:38:13.004Z,30.82
2019-02-23T18:40:47.866Z,34.92
2019-02-23T18:43:25.272Z,32.08
2019-02-23T18:45:59.040Z,29.30
2019-02-23T18:48:33.041Z,28.02
2019-02-23T18:51:08.423Z,25.65
2019-02-23T18:53:41.879Z,34.65
2019-02-23T18:56:15.154Z,32.42
2019-02-23T18:58:50.177Z,30.27
2019-02-23T19:01:23.624Z,29.05
2019-02-23T19:03:59.248Z,30.90
2019-02-23T19:06:35.509Z,30.60
2019-02-23T19:09:10.516Z,33.13
2019-02-23T19:11:46.409Z,34.67
2019-02-23T19:14:22.517Z,36.53
2019-02-23T19:16:56.427Z,36.30
2019-02-23T19:19:31.132Z,38.90
2019-02-23T19:22:05.542Z,36.03
2019-02-23T19:24:41.008Z,34.23
2019-02-23T19:27:17.078Z,30.10
2019-02-23T19:29:52.536Z,28.10
2019-02-23T19:32:28.499Z,29.30
2019-02-23T19:35:04.818Z,28.07
2019-02-23T19:37:39.788Z,31.20
2019-02-23T19:40:15.114Z,28.15
2019-02-23T19:42:50.586Z,27.93
2019-02-23T19:45:26.489Z,27.25
2019-02-23T19:48:01.824Z,27.70
2019-02-23T19:50:42.601Z,28.90
2019-02-23T19:53:18.185Z,31.45
2019-02-23T19:55:53.511Z,32.00
2019-02-23T19:58:29.730Z,28.92
2019-02-23T20:01:06.622Z,28.07
2019-02-23T20:03:43.858Z,27.90
2019-02-23T20:06:19.460Z,25.35
2019-02-23T20:08:53.033Z,28.23
2019-02-23T20:11:26.665Z,30.72
2019-02-23T20:13:59.160Z,30.43
2019-02-23T20:16:31.825Z,31.50
2019-02-23T20:19:05.498Z,32.58
2019-02-23T20:21:38.551Z,29.98
2019-02-23T20:24:11.935Z,31.17
2019-02-23T20:26:44.978Z,32.78
2019-02-23T20:29:17.945Z,36.00
2019-02-23T20:31:51.427Z,40.08
2019-02-23T20:34:23.887Z,42.38
2019-02-23T20:36:58.073Z,38.00
2019-02-23T20:39:31.881Z,39.83
2019-02-23T20:42:05.314Z,36.20
2019-02-23T20:44:39.134Z,34.98
2019-02-23T20:47:14.207Z,36.63
2019-02-23T20:49:47.755Z,36.83
2019-02-23T20:52:21.431Z,36.40
2019-02-23T20:54:56.695Z,33.85
2019-02-23T20:57:30.830Z,39.08
2019-02-23T21:00:04.159Z,37.08
2019-02-23T21:02:40.196Z,38.80
2019-02-23T21:05:14.553Z,38.10
2019-02-23T21:07:49.167Z,36.23
2019-02-23T21:10:22.958Z,33.83
2019-02-23T21:12:58.395Z,33.67
2019-02-23T21:15:32.277Z,30.12
2019-02-23T21:18:08.154Z,30.20
2019-02-23T21:20:42.205Z,28.32
2019-02-23T21:23:16.193Z,27.32
2019-02-23T21:25:50.538Z,26.90
2019-02-23T21:28:24.728Z,26.82
2019-02-23T21:30:59.472Z,25.48
2019-02-23T21:33:35.020Z,25.90
2019-02-23T21:36:15.038Z,25.37
2019-02-23T21:38:50.287Z,26.48
2019-02-23T21:41:25.633Z,24.57
2019-02-23T21:44:00.612Z,25.35
2019-02-23T21:46:35.015Z,24.37
2019-02-23T21:49:09.437Z,27.05
2019-02-23T21:51:44.736Z,27.58
2019-02-23T21:54:19.953Z,27.73
2019-02-23T21:56:56.573Z,29.57
2019-02-23T21:59:31.849Z,28.17
2019-02-23T22:02:07.816Z,31.90
2019-02-23T22:04:43.723Z,32.53
2019-02-23T22:07:19.125Z,32.03
2019-02-23T22:09:53.491Z,32.48
2019-02-23T22:12:28.142Z,36.77
2019-02-23T22:15:01.919Z,40.55
2019-02-23T22:17:35.783Z,44.53
2019-02-23T22:20:09.525Z,45.15
2019-02-23T22:22:44.613Z,49.90
2019-02-23T22:25:21.987Z,44.03
2019-02-23T22:27:59.866Z,47.05
2019-02-23T22:30:34.610Z,47.75
2019-02-23T22:33:10.046Z,45.38
2019-02-23T22:35:43.902Z,47.20
2019-02-23T22:38:19.900Z,48.75
2019-02-23T22:40:54.783Z,46.50
2019-02-23T22:43:29.279Z,50.52
2019-02-23T22:46:04.142Z,51.77
2019-02-23T22:48:38.416Z,57.00
2019-02-23T22:51:13.343Z,53.58
2019-02-23T22:53:47.188Z,52.88
2019-02-23T22:56:22.812Z,49.30
2019-02-23T22:58:57.825Z,46.50
2019-02-23T23:01:33.793Z,45.12
2019-02-23T23:04:07.774Z,40.10
2019-02-23T23:06:47.076Z,41.35
2019-02-23T23:09:21.736Z,43.55
2019-02-23T23:11:59.654Z,45.23
2019-02-23T23:14:36.269Z,45.90
2019-02-23T23:17:10.909Z,41.08
2019-02-23T23:19:46.739Z,39.58
2019-02-23T23:22:21.666Z,34.65
2019-02-23T23:24:55.703Z,32.17
2019-02-23T23:27:30.439Z,33.08
2019-02-23T23:30:05.536Z,30.82
2019-02-23T23:32:40.828Z,30.23
2019-02-23T23:35:15.180Z,30.10
2019-02-23T23:37:50.876Z,29.05
2019-02-23T23:40:24.940Z,28.85
2019-02-23T23:42:59.550Z,28.67
2019-02-23T23:45:33.478Z,29.80
2019-02-23T23:48:07.950Z,27.85
2019-02-23T23:50:42.365Z,28.57
2019-02-23T23:53:16.521Z,26.02
2019-02-23T23:55:50.324Z,24.40
2019-02-23T23:58:26.596Z,28.60
